createdAt,value
2018-09-15T00:01:46.732Z,10.17
2018-09-15T00:04:15.517Z,14.60
2018-09-15T00:06:44.105Z,8.80
2018-09-15T00:09:12.727Z,11.43
2018-09-15T00:11:41.304Z,9.00
2018-09-15T00:14:09.896Z,8.83
2018-09-15T00:16:38.488Z,11.47
2018-09-15T00:19:07.115Z,7.57
2018-09-15T00:21:35.702Z,9.50
2018-09-15T00:24:04.304Z,12.13
2018-09-15T00:26:32.889Z,12.47
2018-09-15T00:29:01.520Z,8.60
2018-09-15T00:31:30.110Z,9.20
2018-09-15T00:33:58.714Z,11.53
2018-09-15T00:36:27.298Z,11.50
2018-09-15T00:38:56.327Z,8.73
2018-09-15T00:41:24.939Z,10.87
2018-09-15T00:43:53.571Z,7.73
2018-09-15T00:46:22.166Z,8.90
2018-09-15T00:48:50.733Z,10.50
2018-09-15T00:51:19.320Z,13.33
2018-09-15T00:53:47.904Z,13.00
2018-09-15T00:56:16.506Z,13.00
2018-09-15T00:58:45.136Z,13.30
2018-09-15T01:01:13.738Z,12.83
2018-09-15T01:03:42.313Z,12.97
2018-09-15T01:06:10.907Z,18.00
2018-09-15T01:08:39.498Z,17.63
2018-09-15T01:11:08.121Z,15.20
2018-09-15T01:13:36.714Z,14.73
2018-09-15T01:16:05.309Z,19.97
2018-09-15T01:18:33.890Z,19.33
2018-09-15T01:21:02.492Z,16.30
2018-09-15T01:23:31.076Z,18.20
2018-09-15T01:25:59.726Z,15.80
2018-09-15T01:28:28.297Z,20.47
2018-09-15T01:30:56.902Z,20.80
2018-09-15T01:33:25.462Z,18.13
2018-09-15T01:35:54.055Z,19.57
2018-09-15T01:38:22.621Z,19.73
2018-09-15T01:40:51.205Z,18.20
2018-09-15T01:43:19.778Z,19.90
2018-09-15T01:45:48.375Z,19.27
2018-09-15T01:48:16.943Z,17.97
2018-09-15T01:50:45.518Z,17.03
2018-09-15T01:53:14.076Z,22.47
2018-09-15T01:55:42.694Z,18.23
2018-09-15T01:58:11.294Z,18.30
2018-09-15T02:00:39.879Z,20.70
2018-09-15T02:03:08.452Z,18.47
2018-09-15T02:05:37.059Z,17.10
2018-09-15T02:08:05.627Z,18.30
2018-09-15T02:10:34.210Z,22.43
2018-09-15T02:13:02.782Z,21.03
2018-09-15T02:15:31.360Z,17.00
2018-09-15T02:17:59.929Z,21.57
2018-09-15T02:20:28.534Z,19.33
2018-09-15T02:22:57.169Z,19.73
2018-09-15T02:25:25.732Z,18.37
2018-09-15T02:27:54.297Z,18.20
2018-09-15T02:30:22.900Z,21.80
2018-09-15T02:32:51.457Z,18.63
2018-09-15T02:35:20.049Z,24.80
2018-09-15T02:37:48.611Z,23.37
2018-09-15T02:40:17.213Z,19.53
2018-09-15T02:42:45.768Z,21.13
2018-09-15T02:45:14.334Z,19.53
2018-09-15T02:47:43.431Z,22.00
2018-09-15T02:50:12.003Z,21.03
2018-09-15T02:52:40.596Z,22.40
2018-09-15T02:55:09.169Z,22.40
2018-09-15T02:57:37.763Z,18.23
2018-09-15T03:00:06.407Z,27.87
2018-09-15T03:02:34.997Z,17.00
2018-09-15T03:05:03.591Z,21.30
2018-09-15T03:07:32.173Z,19.50
2018-09-15T03:10:00.742Z,17.53
2018-09-15T03:12:29.322Z,21.17
2018-09-15T03:14:57.882Z,20.33
2018-09-15T03:17:26.460Z,18.07
2018-09-15T03:19:55.125Z,17.57
2018-09-15T03:22:23.773Z,20.37
2018-09-15T03:24:52.345Z,17.30
2018-09-15T03:27:20.943Z,19.80
2018-09-15T03:29:49.535Z,19.10
2018-09-15T03:32:18.134Z,24.03
2018-09-15T03:34:46.710Z,21.60
2018-09-15T03:37:15.300Z,21.03
2018-09-15T03:39:43.878Z,18.37
2018-09-15T03:42:12.466Z,20.57
2018-09-15T03:44:41.043Z,19.20
2018-09-15T03:47:09.641Z,18.00
2018-09-15T03:49:38.209Z,15.83
2018-09-15T03:52:06.842Z,19.80
2018-09-15T03:54:35.419Z,19.60
2018-09-15T03:57:04.016Z,17.37
2018-09-15T03:59:32.595Z,15.43
2018-09-15T04:02:01.181Z,19.37
2018-09-15T04:04:29.753Z,19.77
2018-09-15T04:06:58.348Z,15.90
2018-09-15T04:09:26.929Z,18.53
2018-09-15T04:11:55.524Z,20.80
2018-09-15T04:14:24.094Z,17.20
2018-09-15T04:16:52.688Z,19.70
2018-09-15T04:19:21.262Z,13.20
2018-09-15T04:21:49.882Z,16.40
2018-09-15T04:24:18.454Z,13.13
2018-09-15T04:26:47.053Z,14.77
2018-09-15T04:29:15.633Z,14.10
2018-09-15T04:31:44.224Z,14.87
2018-09-15T04:34:12.786Z,22.90
2018-09-15T04:36:41.415Z,14.13
2018-09-15T04:39:11.780Z,14.53
2018-09-15T04:41:40.849Z,21.43
2018-09-15T04:44:09.431Z,14.90
2018-09-15T04:46:38.033Z,16.80
2018-09-15T04:49:06.758Z,17.27
2018-09-15T04:51:35.322Z,21.60
2018-09-15T04:54:03.915Z,17.80
2018-09-15T04:56:32.476Z,12.63
2018-09-15T04:59:01.061Z,18.00
2018-09-15T05:01:29.645Z,16.80
2018-09-15T05:03:58.219Z,14.93
2018-09-15T05:06:26.911Z,13.50
2018-09-15T05:08:55.469Z,15.33
2018-09-15T05:11:24.031Z,17.30
2018-09-15T05:13:52.625Z,13.50
2018-09-15T05:16:21.186Z,12.73
2018-09-15T05:18:49.769Z,14.30
2018-09-15T05:21:18.345Z,14.33
2018-09-15T05:23:46.924Z,14.73
2018-09-15T05:26:15.506Z,14.20
2018-09-15T05:28:44.092Z,12.00
2018-09-15T05:31:12.682Z,14.93
2018-09-15T05:33:41.291Z,18.57
2018-09-15T05:36:09.864Z,13.07
2018-09-15T05:38:38.448Z,10.80
2018-09-15T05:41:07.016Z,14.70
2018-09-15T05:43:35.599Z,11.17
2018-09-15T05:46:04.160Z,15.47
2018-09-15T05:48:32.756Z,12.33
2018-09-15T05:51:01.327Z,12.17
2018-09-15T05:53:29.948Z,20.50
2018-09-15T05:55:58.557Z,12.83
2018-09-15T05:58:27.203Z,14.23
2018-09-15T06:00:55.841Z,11.40
2018-09-15T06:03:24.487Z,16.87
2018-09-15T06:05:53.124Z,12.27
2018-09-15T06:08:21.766Z,11.67
2018-09-15T06:10:50.358Z,15.10
2018-09-15T06:13:18.936Z,12.37
2018-09-15T06:15:47.519Z,11.90
2018-09-15T06:18:16.131Z,13.93
2018-09-15T06:20:44.749Z,12.27
2018-09-15T06:23:13.356Z,15.40
2018-09-15T06:25:41.922Z,11.37
2018-09-15T06:28:10.537Z,13.20
2018-09-15T06:30:39.130Z,11.17
2018-09-15T06:33:07.724Z,17.60
2018-09-15T06:35:36.358Z,11.87
2018-09-15T06:38:04.964Z,15.23
2018-09-15T06:40:33.533Z,11.50
2018-09-15T06:43:02.123Z,12.40
2018-09-15T06:45:30.785Z,10.87
2018-09-15T06:47:59.362Z,15.23
2018-09-15T06:50:27.954Z,11.73
2018-09-15T06:52:56.536Z,10.53
2018-09-15T06:55:25.132Z,10.37
2018-09-15T06:57:53.690Z,10.30
2018-09-15T07:00:22.307Z,9.70
2018-09-15T07:02:50.901Z,13.33
2018-09-15T07:05:19.603Z,8.40
2018-09-15T07:07:48.187Z,9.90
2018-09-15T07:10:16.831Z,9.10
2018-09-15T07:12:45.401Z,7.73
2018-09-15T07:15:14.007Z,10.33
2018-09-15T07:17:42.569Z,9.93
2018-09-15T07:20:11.185Z,8.67
2018-09-15T07:22:39.760Z,8.53
2018-09-15T07:25:08.360Z,9.03
2018-09-15T07:27:36.955Z,7.40
2018-09-15T07:30:05.633Z,9.13
2018-09-15T07:32:34.198Z,7.67
2018-09-15T07:35:02.778Z,7.13
2018-09-15T07:37:31.393Z,9.00
2018-09-15T07:40:00.015Z,7.07
2018-09-15T07:42:28.573Z,8.20
2018-09-15T07:44:57.153Z,7.67
2018-09-15T07:47:25.712Z,6.03
2018-09-15T07:49:54.264Z,10.23
2018-09-15T07:52:23.321Z,8.10
2018-09-15T07:54:51.914Z,7.73
2018-09-15T07:57:20.539Z,7.83
2018-09-15T07:59:49.128Z,5.90
2018-09-15T08:02:20.026Z,6.60
2018-09-15T08:04:49.120Z,8.33
2018-09-15T08:07:17.801Z,9.07
2018-09-15T08:09:47.153Z,6.60
2018-09-15T08:12:16.542Z,5.93
2018-09-15T08:14:45.118Z,5.83
2018-09-15T08:17:13.665Z,6.70
2018-09-15T08:19:42.265Z,5.80
2018-09-15T08:22:10.833Z,4.10
2018-09-15T08:24:39.426Z,3.23
2018-09-15T08:27:08.360Z,5.40
2018-09-15T08:29:36.970Z,4.80
2018-09-15T08:32:05.592Z,3.50
2018-09-15T08:34:34.164Z,4.63
2018-09-15T08:37:02.745Z,3.20
2018-09-15T08:39:31.317Z,2.23
2018-09-15T08:41:59.881Z,5.17
2018-09-15T08:44:28.461Z,4.07
2018-09-15T08:46:57.014Z,4.30
2018-09-15T08:49:25.586Z,10.63
2018-09-15T08:51:54.159Z,5.30
2018-09-15T08:54:22.748Z,3.37
2018-09-15T08:56:51.313Z,5.00
2018-09-15T08:59:19.888Z,3.10
2018-09-15T09:01:48.480Z,4.50
2018-09-15T09:04:17.056Z,4.70
2018-09-15T09:06:45.650Z,3.40
2018-09-15T09:09:14.216Z,2.30
2018-09-15T09:11:42.820Z,3.13
2018-09-15T09:14:11.387Z,2.60
2018-09-15T09:16:39.965Z,5.50
2018-09-15T09:19:08.530Z,3.37
2018-09-15T09:21:37.123Z,5.93
2018-09-15T09:24:05.682Z,2.80
2018-09-15T09:26:34.321Z,2.10
2018-09-15T09:29:02.902Z,3.10
2018-09-15T09:31:31.485Z,2.03
2018-09-15T09:34:00.125Z,5.47
2018-09-15T09:36:28.729Z,3.63
2018-09-15T09:38:57.308Z,2.30
2018-09-15T09:41:25.927Z,2.40
2018-09-15T09:43:54.492Z,2.70
2018-09-15T09:46:23.086Z,1.93
2018-09-15T09:48:51.682Z,1.67
2018-09-15T09:51:20.276Z,3.97
2018-09-15T09:53:48.860Z,2.57
2018-09-15T09:56:17.466Z,9.40
2018-09-15T09:58:46.049Z,2.60
2018-09-15T10:01:20.066Z,2.23
2018-09-15T10:03:48.649Z,3.23
2018-09-15T10:06:17.319Z,1.93
2018-09-15T10:08:45.873Z,2.73
2018-09-15T10:11:14.518Z,2.80
2018-09-15T10:13:43.088Z,3.77
2018-09-15T10:16:11.707Z,1.63
2018-09-15T10:18:40.305Z,1.90
2018-09-15T10:21:08.908Z,1.50
2018-09-15T10:23:37.563Z,1.87
2018-09-15T10:26:06.172Z,1.50
2018-09-15T10:28:34.772Z,2.50
2018-09-15T10:31:03.401Z,3.33
2018-09-15T10:33:31.988Z,4.23
2018-09-15T10:36:00.586Z,3.60
2018-09-15T10:38:29.219Z,5.17
2018-09-15T10:40:57.791Z,2.50
2018-09-15T10:43:26.381Z,3.00
2018-09-15T10:45:55.034Z,7.23
2018-09-15T10:48:23.618Z,2.30
2018-09-15T10:50:52.201Z,1.43
2018-09-15T10:53:20.772Z,4.03
2018-09-15T10:55:49.410Z,2.53
2018-09-15T10:58:18.011Z,1.77
2018-09-15T11:00:46.691Z,2.30
2018-09-15T11:03:15.235Z,2.10
2018-09-15T11:05:43.827Z,3.40
2018-09-15T11:08:12.442Z,2.40
2018-09-15T11:10:41.016Z,2.47
2018-09-15T11:13:09.662Z,3.43
2018-09-15T11:15:38.241Z,2.10
2018-09-15T11:18:06.885Z,3.40
2018-09-15T11:20:35.457Z,2.13
2018-09-15T11:23:04.068Z,2.93
2018-09-15T11:25:32.631Z,2.57
2018-09-15T11:28:01.250Z,3.33
2018-09-15T11:30:29.852Z,2.10
2018-09-15T11:32:58.488Z,1.97
2018-09-15T11:35:27.080Z,2.30
2018-09-15T11:37:55.713Z,4.13
2018-09-15T11:40:24.282Z,2.93
2018-09-15T11:42:52.988Z,6.93
2018-09-15T11:45:21.567Z,4.33
2018-09-15T11:47:50.202Z,2.33
2018-09-15T11:50:18.777Z,2.77
2018-09-15T11:52:48.127Z,1.80
2018-09-15T11:55:17.026Z,1.60
2018-09-15T11:57:45.634Z,3.50
2018-09-15T12:00:16.380Z,4.00
2018-09-15T12:02:45.014Z,2.10
2018-09-15T12:05:13.594Z,2.03
2018-09-15T12:07:42.227Z,4.20
2018-09-15T12:10:10.826Z,3.23
2018-09-15T12:12:39.432Z,6.03
2018-09-15T12:15:08.030Z,1.80
2018-09-15T12:17:36.657Z,1.63
2018-09-15T12:20:05.257Z,1.50
2018-09-15T12:22:33.836Z,3.03
2018-09-15T12:25:02.425Z,2.07
2018-09-15T12:27:31.021Z,4.00
2018-09-15T12:29:59.596Z,3.67
2018-09-15T12:32:28.194Z,3.90
2018-09-15T12:34:56.767Z,2.33
2018-09-15T12:37:25.354Z,1.93
2018-09-15T12:39:53.931Z,1.90
2018-09-15T12:42:22.514Z,1.77
2018-09-15T12:44:51.122Z,4.50
2018-09-15T12:47:19.737Z,1.60
2018-09-15T12:49:48.313Z,5.50
2018-09-15T12:52:17.801Z,6.23
2018-09-15T12:54:46.348Z,1.73
2018-09-15T12:57:14.984Z,1.20
2018-09-15T12:59:43.552Z,3.27
2018-09-15T13:02:12.163Z,2.17
2018-09-15T13:04:40.737Z,5.43
2018-09-15T13:07:09.321Z,4.67
2018-09-15T13:09:37.945Z,1.70
2018-09-15T13:12:06.601Z,2.90
2018-09-15T13:14:35.189Z,2.50
2018-09-15T13:17:03.772Z,1.50
2018-09-15T13:19:32.374Z,4.90
2018-09-15T13:22:00.949Z,1.37
2018-09-15T13:24:29.557Z,1.10
2018-09-15T13:26:58.128Z,1.20
2018-09-15T13:29:26.797Z,1.73
2018-09-15T13:31:55.406Z,1.33
2018-09-15T13:34:23.998Z,3.53
2018-09-15T13:36:52.581Z,3.53
2018-09-15T13:39:21.170Z,1.67
2018-09-15T13:41:49.752Z,3.13
2018-09-15T13:44:18.355Z,1.47
2018-09-15T13:46:46.943Z,1.93
2018-09-15T13:49:15.556Z,3.43
2018-09-15T13:51:44.125Z,1.87
2018-09-15T13:54:12.725Z,1.37
2018-09-15T13:56:41.288Z,3.13
2018-09-15T13:59:09.894Z,1.67
2018-09-15T14:01:38.457Z,1.90
2018-09-15T14:04:07.322Z,1.97
2018-09-15T14:06:35.889Z,1.30
2018-09-15T14:09:05.858Z,3.33
2018-09-15T14:11:34.425Z,2.70
2018-09-15T14:14:03.055Z,3.93
2018-09-15T14:16:31.655Z,2.50
2018-09-15T14:19:00.285Z,3.23
2018-09-15T14:21:28.883Z,1.13
2018-09-15T14:23:57.480Z,4.50
2018-09-15T14:26:26.045Z,2.40
2018-09-15T14:28:54.658Z,2.07
2018-09-15T14:31:23.226Z,1.03
2018-09-15T14:33:51.805Z,3.93
2018-09-15T14:36:20.373Z,2.00
2018-09-15T14:38:49.012Z,1.43
2018-09-15T14:41:17.593Z,3.73
2018-09-15T14:43:46.577Z,3.70
2018-09-15T14:46:15.154Z,1.73
2018-09-15T14:48:43.732Z,2.43
2018-09-15T14:51:12.326Z,3.33
2018-09-15T14:53:40.949Z,2.63
2018-09-15T14:56:10.102Z,3.03
2018-09-15T14:58:38.699Z,3.30
2018-09-15T15:01:07.314Z,3.00
2018-09-15T15:03:35.978Z,3.07
2018-09-15T15:06:04.610Z,5.70
2018-09-15T15:08:33.235Z,3.10
2018-09-15T15:11:01.796Z,1.97
2018-09-15T15:13:30.403Z,2.10
2018-09-15T15:15:58.987Z,3.43
2018-09-15T15:18:27.550Z,4.07
2018-09-15T15:20:56.146Z,1.93
2018-09-15T15:23:24.723Z,3.90
2018-09-15T15:25:53.316Z,2.90
2018-09-15T15:28:21.886Z,4.77
2018-09-15T15:30:50.478Z,5.17
2018-09-15T15:33:19.037Z,3.43
2018-09-15T15:35:47.629Z,6.13
2018-09-15T15:38:16.194Z,4.67
2018-09-15T15:40:44.858Z,4.03
2018-09-15T15:43:13.393Z,5.70
2018-09-15T15:45:41.990Z,4.40
2018-09-15T15:48:10.582Z,3.70
2018-09-15T15:50:39.178Z,5.57
2018-09-15T15:53:07.757Z,5.50
2018-09-15T15:55:36.397Z,2.30
2018-09-15T15:58:04.954Z,3.47
2018-09-15T16:00:33.561Z,4.30
2018-09-15T16:03:02.135Z,3.20
2018-09-15T16:05:30.726Z,1.73
2018-09-15T16:07:59.305Z,1.60
2018-09-15T16:10:27.908Z,3.27
2018-09-15T16:12:56.472Z,2.77
2018-09-15T16:15:25.072Z,1.37
2018-09-15T16:17:53.630Z,4.50
2018-09-15T16:20:22.222Z,9.77
2018-09-15T16:22:50.802Z,2.63
2018-09-15T16:25:19.378Z,1.93
2018-09-15T16:27:47.955Z,2.07
2018-09-15T16:30:16.556Z,2.10
2018-09-15T16:32:45.146Z,4.80
2018-09-15T16:35:13.759Z,8.73
2018-09-15T16:37:42.335Z,2.13
2018-09-15T16:40:10.933Z,3.23
2018-09-15T16:42:39.547Z,6.40
2018-09-15T16:45:08.136Z,6.43
2018-09-15T16:47:36.737Z,8.90
2018-09-15T16:50:05.384Z,4.07
2018-09-15T16:52:33.957Z,10.70
2018-09-15T16:55:02.572Z,4.77
2018-09-15T16:57:31.147Z,5.87
2018-09-15T16:59:59.742Z,7.20
2018-09-15T17:02:28.312Z,10.27
2018-09-15T17:04:56.895Z,4.53
2018-09-15T17:07:25.480Z,4.53
2018-09-15T17:09:54.106Z,4.87
2018-09-15T17:12:22.703Z,5.63
2018-09-15T17:14:51.283Z,4.60
2018-09-15T17:17:19.884Z,6.77
2018-09-15T17:19:48.499Z,2.40
2018-09-15T17:22:17.125Z,3.23
2018-09-15T17:24:45.698Z,3.97
2018-09-15T17:27:14.302Z,3.30
2018-09-15T17:29:42.871Z,6.80
2018-09-15T17:32:11.447Z,3.33
2018-09-15T17:34:40.005Z,6.40
2018-09-15T17:37:08.620Z,3.07
2018-09-15T17:39:37.219Z,5.33
2018-09-15T17:42:06.129Z,3.00
2018-09-15T17:44:34.697Z,4.70
2018-09-15T17:47:03.300Z,2.53
2018-09-15T17:49:31.841Z,4.27
2018-09-15T17:52:00.432Z,3.80
2018-09-15T17:54:28.975Z,3.53
2018-09-15T17:56:57.561Z,6.10
2018-09-15T17:59:26.127Z,4.77
2018-09-15T18:01:54.790Z,3.93
2018-09-15T18:04:23.345Z,4.27
2018-09-15T18:06:51.975Z,3.00
2018-09-15T18:09:20.563Z,7.67
2018-09-15T18:11:49.161Z,4.00
2018-09-15T18:14:17.731Z,3.20
2018-09-15T18:16:46.322Z,3.87
2018-09-15T18:19:14.885Z,3.63
2018-09-15T18:21:43.473Z,4.30
2018-09-15T18:24:12.036Z,3.73
2018-09-15T18:26:40.624Z,3.50
2018-09-15T18:29:09.222Z,5.50
2018-09-15T18:31:37.809Z,5.33
2018-09-15T18:34:06.375Z,9.67
2018-09-15T18:36:35.070Z,8.73
2018-09-15T18:39:04.036Z,3.07
2018-09-15T18:41:32.616Z,5.27
2018-09-15T18:44:01.175Z,5.03
2018-09-15T18:46:29.755Z,8.83
2018-09-15T18:48:58.319Z,4.60
2018-09-15T18:51:26.904Z,4.07
2018-09-15T18:53:55.539Z,4.10
2018-09-15T18:56:24.310Z,4.03
2018-09-15T18:58:52.865Z,6.40
2018-09-15T19:01:21.463Z,5.73
2018-09-15T19:03:50.028Z,9.13
2018-09-15T19:06:18.613Z,7.30
2018-09-15T19:08:47.171Z,4.40
2018-09-15T19:11:15.775Z,3.73
2018-09-15T19:13:44.343Z,5.77
2018-09-15T19:16:12.918Z,9.00
2018-09-15T19:18:41.509Z,5.60
2018-09-15T19:21:10.144Z,5.57
2018-09-15T19:23:38.716Z,5.10
2018-09-15T19:26:07.291Z,6.37
2018-09-15T19:28:35.878Z,9.23
2018-09-15T19:31:04.515Z,8.37
2018-09-15T19:33:33.107Z,6.57
2018-09-15T19:36:01.657Z,7.67
2018-09-15T19:38:30.276Z,8.30
2018-09-15T19:40:58.825Z,5.40
2018-09-15T19:43:27.413Z,8.47
2018-09-15T19:45:55.979Z,5.03
2018-09-15T19:48:24.561Z,6.97
2018-09-15T19:50:53.121Z,8.27
2018-09-15T19:53:21.697Z,5.07
2018-09-15T19:55:50.254Z,5.97
2018-09-15T19:58:18.849Z,10.07
2018-09-15T20:00:47.462Z,5.30
2018-09-15T20:03:16.031Z,7.60
2018-09-15T20:05:44.586Z,5.30
2018-09-15T20:08:13.156Z,7.57
2018-09-15T20:10:41.715Z,12.63
2018-09-15T20:13:10.305Z,7.20
2018-09-15T20:15:37.681Z,8.57
2018-09-15T20:18:05.083Z,9.17
2018-09-15T20:20:32.462Z,10.33
2018-09-15T20:23:01.079Z,7.63
2018-09-15T20:25:29.649Z,8.77
2018-09-15T20:27:58.230Z,8.10
2018-09-15T20:30:26.829Z,7.90
2018-09-15T20:32:55.442Z,4.80
2018-09-15T20:35:24.038Z,5.40
2018-09-15T20:37:52.621Z,3.77
2018-09-15T20:40:21.238Z,7.50
2018-09-15T20:42:49.828Z,3.93
2018-09-15T20:45:18.404Z,4.03
2018-09-15T20:47:46.978Z,4.10
2018-09-15T20:50:15.552Z,6.40
2018-09-15T20:52:44.233Z,6.33
2018-09-15T20:55:12.782Z,6.10
2018-09-15T20:57:41.381Z,6.43
2018-09-15T21:00:10.760Z,5.87
2018-09-15T21:02:39.589Z,7.00
2018-09-15T21:05:08.190Z,3.97
2018-09-15T21:07:36.784Z,7.07
2018-09-15T21:10:05.738Z,60.90
2018-09-15T21:12:34.365Z,10.67
2018-09-15T21:15:02.990Z,8.60
2018-09-15T21:17:31.572Z,29.17
2018-09-15T21:20:00.221Z,8.37
2018-09-15T21:22:28.775Z,5.17
2018-09-15T21:24:57.378Z,19.53
2018-09-15T21:27:25.943Z,7.67
2018-09-15T21:29:54.557Z,3.40
2018-09-15T21:32:23.146Z,4.10
2018-09-15T21:34:51.763Z,3.63
2018-09-15T21:37:20.345Z,5.60
2018-09-15T21:39:48.930Z,4.23
2018-09-15T21:42:17.501Z,3.60
2018-09-15T21:44:46.099Z,2.90
2018-09-15T21:47:14.669Z,5.70
2018-09-15T21:49:43.261Z,3.30
2018-09-15T21:52:11.845Z,3.27
2018-09-15T21:54:40.442Z,3.07
2018-09-15T21:57:09.015Z,2.23
2018-09-15T21:59:37.618Z,12.23
2018-09-15T22:02:06.225Z,3.70
2018-09-15T22:04:34.825Z,5.13
2018-09-15T22:07:03.449Z,3.80
2018-09-15T22:09:32.119Z,2.60
2018-09-15T22:12:00.673Z,7.93
2018-09-15T22:14:29.270Z,38.97
2018-09-15T22:16:57.962Z,45.43
2018-09-15T22:19:26.576Z,18.73
2018-09-15T22:21:55.177Z,36.53
2018-09-15T22:24:23.788Z,10.53
2018-09-15T22:26:52.378Z,2.90
2018-09-15T22:29:20.994Z,2.30
2018-09-15T22:31:49.564Z,2.10
2018-09-15T22:34:18.177Z,3.30
2018-09-15T22:36:46.748Z,3.97
2018-09-15T22:39:15.338Z,3.00
2018-09-15T22:41:43.895Z,3.13
2018-09-15T22:44:12.477Z,3.20
2018-09-15T22:46:41.040Z,3.00
2018-09-15T22:49:09.624Z,22.53
2018-09-15T22:51:38.217Z,34.10
2018-09-15T22:54:06.833Z,19.97
2018-09-15T22:56:35.409Z,3.73
2018-09-15T22:59:04.005Z,3.83
2018-09-15T23:01:32.564Z,2.80
2018-09-15T23:04:09.420Z,3.53
2018-09-15T23:06:37.982Z,2.60
2018-09-15T23:09:08.711Z,3.83
2018-09-15T23:11:37.277Z,3.83
2018-09-15T23:14:05.842Z,4.73
2018-09-15T23:16:34.435Z,3.20
2018-09-15T23:19:03.032Z,3.83
2018-09-15T23:21:31.679Z,3.50
2018-09-15T23:24:00.344Z,3.70
2018-09-15T23:26:28.951Z,38.57
2018-09-15T23:28:57.515Z,8.80
2018-09-15T23:31:26.152Z,9.33
2018-09-15T23:33:54.724Z,6.57
2018-09-15T23:36:23.324Z,46.60
2018-09-15T23:38:51.909Z,59.13
2018-09-15T23:41:20.514Z,35.33
2018-09-15T23:43:49.102Z,32.03
2018-09-15T23:46:17.744Z,12.07
2018-09-15T23:48:46.342Z,7.07
2018-09-15T23:51:14.947Z,6.40
2018-09-15T23:53:43.534Z,4.47
2018-09-15T23:56:12.114Z,8.33
2018-09-15T23:58:40.688Z,4.53
